sensor_id;sensor_type;location;lat;lon;timestamp;P1;durP1;ratioP1;P2;durP2;ratioP2
54430;SDS011;40342;52.998;5.862;2022-10-30T00:00:16;19.35;;;10.27;;
54430;SDS011;40342;52.998;5.862;2022-10-30T00:02:41;18.13;;;9.55;;
54430;SDS011;40342;52.998;5.862;2022-10-30T00:05:07;19.42;;;9.88;;
54430;SDS011;40342;52.998;5.862;2022-10-30T00:07:33;18.02;;;9.63;;
54430;SDS011;40342;52.998;5.862;2022-10-30T00:09:59;20.50;;;10.20;;
54430;SDS011;40342;52.998;5.862;2022-10-30T00:12:24;19.63;;;10.00;;
54430;SDS011;40342;52.998;5.862;2022-10-30T00:14:50;17.25;;;9.57;;
54430;SDS011;40342;52.998;5.862;2022-10-30T00:17:15;22.95;;;10.18;;
54430;SDS011;40342;52.998;5.862;2022-10-30T00:19:41;22.58;;;9.48;;
54430;SDS011;40342;52.998;5.862;2022-10-30T00:22:07;18.73;;;9.48;;
54430;SDS011;40342;52.998;5.862;2022-10-30T00:24:33;18.08;;;10.07;;
54430;SDS011;40342;52.998;5.862;2022-10-30T00:26:59;16.35;;;9.93;;
54430;SDS011;40342;52.998;5.862;2022-10-30T00:29:24;16.83;;;9.55;;
54430;SDS011;40342;52.998;5.862;2022-10-30T00:31:50;23.30;;;10.10;;
54430;SDS011;40342;52.998;5.862;2022-10-30T00:34:16;16.73;;;9.75;;
54430;SDS011;40342;52.998;5.862;2022-10-30T00:36:42;22.75;;;9.70;;
54430;SDS011;40342;52.998;5.862;2022-10-30T00:39:08;16.27;;;9.75;;
54430;SDS011;40342;52.998;5.862;2022-10-30T00:41:34;20.35;;;10.05;;
54430;SDS011;40342;52.998;5.862;2022-10-30T00:43:59;20.50;;;10.65;;
54430;SDS011;40342;52.998;5.862;2022-10-30T00:46:26;23.38;;;9.95;;
54430;SDS011;40342;52.998;5.862;2022-10-30T00:51:51;22.23;;;10.93;;
54430;SDS011;40342;52.998;5.862;2022-10-30T00:54:18;20.92;;;10.15;;
54430;SDS011;40342;52.998;5.862;2022-10-30T00:56:46;19.98;;;9.88;;
54430;SDS011;40342;52.998;5.862;2022-10-30T00:59:14;19.77;;;9.73;;
54430;SDS011;40342;52.998;5.862;2022-10-30T01:01:43;15.45;;;10.25;;
54430;SDS011;40342;52.998;5.862;2022-10-30T01:04:10;21.63;;;10.48;;
54430;SDS011;40342;52.998;5.862;2022-10-30T01:06:37;16.50;;;9.90;;
54430;SDS011;40342;52.998;5.862;2022-10-30T01:09:06;20.02;;;11.05;;
54430;SDS011;40342;52.998;5.862;2022-10-30T01:11:32;17.05;;;10.43;;
54430;SDS011;40342;52.998;5.862;2022-10-30T01:13:58;16.77;;;9.68;;
54430;SDS011;40342;52.998;5.862;2022-10-30T01:16:46;21.50;;;9.75;;
54430;SDS011;40342;52.998;5.862;2022-10-30T01:19:35;15.95;;;9.10;;
54430;SDS011;40342;52.998;5.862;2022-10-30T01:22:53;21.33;;;10.05;;
54430;SDS011;40342;52.998;5.862;2022-10-30T01:27:47;28.08;;;10.45;;
54430;SDS011;40342;52.998;5.862;2022-10-30T01:38:32;20.10;;;10.55;;
54430;SDS011;40342;52.998;5.862;2022-10-30T01:41:00;18.70;;;10.93;;
54430;SDS011;40342;52.998;5.862;2022-10-30T01:43:26;17.60;;;10.10;;
54430;SDS011;40342;52.998;5.862;2022-10-30T01:45:58;17.13;;;9.90;;
54430;SDS011;40342;52.998;5.862;2022-10-30T01:52:12;18.77;;;9.50;;
54430;SDS011;40342;52.998;5.862;2022-10-30T01:54:58;19.40;;;10.00;;
54430;SDS011;40342;52.998;5.862;2022-10-30T01:57:36;17.38;;;10.35;;
54430;SDS011;40342;52.998;5.862;2022-10-30T02:00:10;20.30;;;10.60;;
54430;SDS011;40342;52.998;5.862;2022-10-30T02:02:39;20.90;;;10.32;;
54430;SDS011;40342;52.998;5.862;2022-10-30T02:05:06;16.70;;;10.43;;
54430;SDS011;40342;52.998;5.862;2022-10-30T02:07:34;18.70;;;10.70;;
54430;SDS011;40342;52.998;5.862;2022-10-30T02:10:00;18.42;;;9.65;;
54430;SDS011;40342;52.998;5.862;2022-10-30T02:12:26;20.33;;;11.23;;
54430;SDS011;40342;52.998;5.862;2022-10-30T02:14:53;16.85;;;11.25;;
54430;SDS011;40342;52.998;5.862;2022-10-30T02:17:22;18.17;;;11.05;;
54430;SDS011;40342;52.998;5.862;2022-10-30T02:19:48;23.58;;;11.57;;
54430;SDS011;40342;52.998;5.862;2022-10-30T02:22:14;26.77;;;11.05;;
54430;SDS011;40342;52.998;5.862;2022-10-30T02:24:41;17.90;;;10.80;;
54430;SDS011;40342;52.998;5.862;2022-10-30T02:27:07;18.05;;;10.90;;
54430;SDS011;40342;52.998;5.862;2022-10-30T02:29:33;22.73;;;10.95;;
54430;SDS011;40342;52.998;5.862;2022-10-30T02:31:58;19.58;;;10.63;;
54430;SDS011;40342;52.998;5.862;2022-10-30T02:34:24;18.25;;;10.77;;
54430;SDS011;40342;52.998;5.862;2022-10-30T02:36:49;21.98;;;11.90;;
54430;SDS011;40342;52.998;5.862;2022-10-30T02:39:15;20.05;;;10.80;;
54430;SDS011;40342;52.998;5.862;2022-10-30T02:41:40;27.92;;;10.95;;
54430;SDS011;40342;52.998;5.862;2022-10-30T02:44:06;19.77;;;11.18;;
54430;SDS011;40342;52.998;5.862;2022-10-30T02:46:32;19.50;;;11.02;;
54430;SDS011;40342;52.998;5.862;2022-10-30T02:48:58;25.67;;;11.40;;
54430;SDS011;40342;52.998;5.862;2022-10-30T02:51:23;15.77;;;10.20;;
54430;SDS011;40342;52.998;5.862;2022-10-30T02:53:49;19.35;;;11.07;;
54430;SDS011;40342;52.998;5.862;2022-10-30T02:56:15;17.63;;;10.65;;
54430;SDS011;40342;52.998;5.862;2022-10-30T02:58:41;18.13;;;11.23;;
54430;SDS011;40342;52.998;5.862;2022-10-30T03:03:36;22.13;;;10.82;;
54430;SDS011;40342;52.998;5.862;2022-10-30T03:06:03;23.88;;;10.73;;
54430;SDS011;40342;52.998;5.862;2022-10-30T03:08:31;24.88;;;11.95;;
54430;SDS011;40342;52.998;5.862;2022-10-30T03:10:58;20.02;;;11.15;;
54430;SDS011;40342;52.998;5.862;2022-10-30T03:13:26;19.25;;;11.93;;
54430;SDS011;40342;52.998;5.862;2022-10-30T03:15:52;18.33;;;10.95;;
54430;SDS011;40342;52.998;5.862;2022-10-30T03:18:25;16.27;;;11.15;;
54430;SDS011;40342;52.998;5.862;2022-10-30T03:20:54;17.30;;;10.80;;
54430;SDS011;40342;52.998;5.862;2022-10-30T03:23:21;22.25;;;12.07;;
54430;SDS011;40342;52.998;5.862;2022-10-30T03:25:50;19.75;;;11.35;;
54430;SDS011;40342;52.998;5.862;2022-10-30T03:28:16;23.80;;;12.25;;
54430;SDS011;40342;52.998;5.862;2022-10-30T03:30:42;23.30;;;11.25;;
54430;SDS011;40342;52.998;5.862;2022-10-30T03:33:07;21.38;;;11.25;;
54430;SDS011;40342;52.998;5.862;2022-10-30T03:35:34;19.48;;;11.38;;
54430;SDS011;40342;52.998;5.862;2022-10-30T03:38:00;20.48;;;10.65;;
54430;SDS011;40342;52.998;5.862;2022-10-30T03:40:26;25.25;;;11.82;;
54430;SDS011;40342;52.998;5.862;2022-10-30T03:42:51;27.50;;;12.00;;
54430;SDS011;40342;52.998;5.862;2022-10-30T03:45:17;23.27;;;11.30;;
54430;SDS011;40342;52.998;5.862;2022-10-30T03:47:42;25.98;;;11.73;;
54430;SDS011;40342;52.998;5.862;2022-10-30T03:50:08;20.00;;;9.95;;
54430;SDS011;40342;52.998;5.862;2022-10-30T03:52:34;21.77;;;11.27;;
54430;SDS011;40342;52.998;5.862;2022-10-30T03:54:59;20.08;;;11.07;;
54430;SDS011;40342;52.998;5.862;2022-10-30T03:57:25;20.25;;;11.57;;
54430;SDS011;40342;52.998;5.862;2022-10-30T03:59:50;20.83;;;10.63;;
54430;SDS011;40342;52.998;5.862;2022-10-30T04:02:16;24.98;;;11.90;;
54430;SDS011;40342;52.998;5.862;2022-10-30T04:04:41;18.23;;;11.25;;
54430;SDS011;40342;52.998;5.862;2022-10-30T04:07:07;20.35;;;12.48;;
54430;SDS011;40342;52.998;5.862;2022-10-30T04:09:32;16.67;;;11.55;;
54430;SDS011;40342;52.998;5.862;2022-10-30T04:11:58;20.67;;;11.75;;
54430;SDS011;40342;52.998;5.862;2022-10-30T04:14:23;23.17;;;11.95;;
54430;SDS011;40342;52.998;5.862;2022-10-30T04:16:49;24.77;;;12.05;;
54430;SDS011;40342;52.998;5.862;2022-10-30T04:19:14;21.92;;;12.00;;
54430;SDS011;40342;52.998;5.862;2022-10-30T04:21:40;22.55;;;13.00;;
54430;SDS011;40342;52.998;5.862;2022-10-30T04:24:07;24.52;;;11.93;;
54430;SDS011;40342;52.998;5.862;2022-10-30T04:26:33;26.90;;;12.07;;
54430;SDS011;40342;52.998;5.862;2022-10-30T04:28:59;18.77;;;11.93;;
54430;SDS011;40342;52.998;5.862;2022-10-30T04:31:25;19.00;;;11.98;;
54430;SDS011;40342;52.998;5.862;2022-10-30T04:33:50;18.20;;;12.10;;
54430;SDS011;40342;52.998;5.862;2022-10-30T04:36:16;18.63;;;11.50;;
54430;SDS011;40342;52.998;5.862;2022-10-30T04:38:42;20.50;;;12.40;;
54430;SDS011;40342;52.998;5.862;2022-10-30T04:41:08;17.02;;;12.48;;
54430;SDS011;40342;52.998;5.862;2022-10-30T04:43:33;21.00;;;12.32;;
54430;SDS011;40342;52.998;5.862;2022-10-30T04:46:02;22.13;;;12.23;;
54430;SDS011;40342;52.998;5.862;2022-10-30T04:48:29;23.30;;;12.15;;
54430;SDS011;40342;52.998;5.862;2022-10-30T04:50:56;21.65;;;11.98;;
54430;SDS011;40342;52.998;5.862;2022-10-30T04:53:22;19.58;;;11.90;;
54430;SDS011;40342;52.998;5.862;2022-10-30T04:55:51;22.65;;;12.40;;
54430;SDS011;40342;52.998;5.862;2022-10-30T04:58:19;21.65;;;11.77;;
54430;SDS011;40342;52.998;5.862;2022-10-30T05:00:45;27.10;;;11.88;;
54430;SDS011;40342;52.998;5.862;2022-10-30T05:03:16;21.42;;;12.07;;
54430;SDS011;40342;52.998;5.862;2022-10-30T05:05:43;18.92;;;11.55;;
54430;SDS011;40342;52.998;5.862;2022-10-30T05:08:09;20.35;;;11.02;;
54430;SDS011;40342;52.998;5.862;2022-10-30T05:10:37;18.55;;;11.27;;
54430;SDS011;40342;52.998;5.862;2022-10-30T05:13:04;22.27;;;12.43;;
54430;SDS011;40342;52.998;5.862;2022-10-30T05:15:30;21.45;;;11.30;;
54430;SDS011;40342;52.998;5.862;2022-10-30T05:17:55;21.33;;;11.88;;
54430;SDS011;40342;52.998;5.862;2022-10-30T05:20:21;23.70;;;11.77;;
54430;SDS011;40342;52.998;5.862;2022-10-30T05:22:53;26.35;;;12.10;;
54430;SDS011;40342;52.998;5.862;2022-10-30T05:25:23;16.63;;;11.70;;
54430;SDS011;40342;52.998;5.862;2022-10-30T05:27:49;19.60;;;12.15;;
54430;SDS011;40342;52.998;5.862;2022-10-30T05:30:15;20.42;;;12.38;;
54430;SDS011;40342;52.998;5.862;2022-10-30T05:32:40;30.23;;;13.05;;
54430;SDS011;40342;52.998;5.862;2022-10-30T05:35:06;21.27;;;12.93;;
54430;SDS011;40342;52.998;5.862;2022-10-30T05:37:32;23.63;;;12.75;;
54430;SDS011;40342;52.998;5.862;2022-10-30T05:39:58;22.40;;;11.15;;
54430;SDS011;40342;52.998;5.862;2022-10-30T05:42:23;21.80;;;12.88;;
54430;SDS011;40342;52.998;5.862;2022-10-30T05:44:49;19.38;;;12.57;;
54430;SDS011;40342;52.998;5.862;2022-10-30T05:47:15;20.65;;;12.38;;
54430;SDS011;40342;52.998;5.862;2022-10-30T05:49:40;23.10;;;13.20;;
54430;SDS011;40342;52.998;5.862;2022-10-30T05:52:06;27.10;;;13.13;;
54430;SDS011;40342;52.998;5.862;2022-10-30T05:54:31;22.40;;;12.15;;
54430;SDS011;40342;52.998;5.862;2022-10-30T05:56:57;25.88;;;12.40;;
54430;SDS011;40342;52.998;5.862;2022-10-30T05:59:22;24.85;;;13.20;;
54430;SDS011;40342;52.998;5.862;2022-10-30T06:01:48;22.33;;;11.60;;
54430;SDS011;40342;52.998;5.862;2022-10-30T06:04:14;22.50;;;11.40;;
54430;SDS011;40342;52.998;5.862;2022-10-30T06:06:39;18.48;;;11.75;;
54430;SDS011;40342;52.998;5.862;2022-10-30T06:09:05;22.15;;;11.48;;
54430;SDS011;40342;52.998;5.862;2022-10-30T06:11:30;21.50;;;12.10;;
54430;SDS011;40342;52.998;5.862;2022-10-30T06:13:56;22.08;;;12.32;;
54430;SDS011;40342;52.998;5.862;2022-10-30T06:16:22;25.95;;;13.18;;
54430;SDS011;40342;52.998;5.862;2022-10-30T06:18:47;21.58;;;12.55;;
54430;SDS011;40342;52.998;5.862;2022-10-30T06:21:13;22.67;;;12.95;;
54430;SDS011;40342;52.998;5.862;2022-10-30T06:23:38;18.48;;;12.18;;
54430;SDS011;40342;52.998;5.862;2022-10-30T06:26:04;19.30;;;12.77;;
54430;SDS011;40342;52.998;5.862;2022-10-30T06:28:29;24.05;;;11.80;;
54430;SDS011;40342;52.998;5.862;2022-10-30T06:30:55;26.55;;;12.45;;
54430;SDS011;40342;52.998;5.862;2022-10-30T06:33:20;17.88;;;12.13;;
54430;SDS011;40342;52.998;5.862;2022-10-30T06:35:47;18.15;;;12.30;;
54430;SDS011;40342;52.998;5.862;2022-10-30T06:38:13;17.80;;;11.25;;
54430;SDS011;40342;52.998;5.862;2022-10-30T06:40:40;22.75;;;11.98;;
54430;SDS011;40342;52.998;5.862;2022-10-30T06:43:05;19.75;;;11.85;;
54430;SDS011;40342;52.998;5.862;2022-10-30T06:45:31;19.88;;;12.63;;
54430;SDS011;40342;52.998;5.862;2022-10-30T06:47:58;23.00;;;11.38;;
54430;SDS011;40342;52.998;5.862;2022-10-30T06:50:25;23.60;;;12.60;;
54430;SDS011;40342;52.998;5.862;2022-10-30T06:52:51;21.65;;;12.38;;
54430;SDS011;40342;52.998;5.862;2022-10-30T06:55:19;25.73;;;12.85;;
54430;SDS011;40342;52.998;5.862;2022-10-30T06:57:45;23.60;;;12.10;;
54430;SDS011;40342;52.998;5.862;2022-10-30T07:00:13;22.10;;;11.10;;
54430;SDS011;40342;52.998;5.862;2022-10-30T07:02:39;19.15;;;11.40;;
54430;SDS011;40342;52.998;5.862;2022-10-30T07:05:04;17.08;;;12.05;;
54430;SDS011;40342;52.998;5.862;2022-10-30T07:07:30;18.45;;;12.00;;
54430;SDS011;40342;52.998;5.862;2022-10-30T07:09:56;23.63;;;13.27;;
54430;SDS011;40342;52.998;5.862;2022-10-30T07:12:21;25.42;;;13.02;;
54430;SDS011;40342;52.998;5.862;2022-10-30T07:14:47;20.38;;;12.63;;
54430;SDS011;40342;52.998;5.862;2022-10-30T07:17:12;22.50;;;12.88;;
54430;SDS011;40342;52.998;5.862;2022-10-30T07:19:38;19.42;;;11.98;;
54430;SDS011;40342;52.998;5.862;2022-10-30T07:22:03;23.13;;;13.05;;
54430;SDS011;40342;52.998;5.862;2022-10-30T07:24:29;16.55;;;12.35;;
54430;SDS011;40342;52.998;5.862;2022-10-30T07:26:54;23.30;;;12.70;;
54430;SDS011;40342;52.998;5.862;2022-10-30T07:29:20;24.63;;;14.00;;
54430;SDS011;40342;52.998;5.862;2022-10-30T07:31:46;24.05;;;13.10;;
54430;SDS011;40342;52.998;5.862;2022-10-30T07:34:13;24.67;;;13.05;;
54430;SDS011;40342;52.998;5.862;2022-10-30T07:36:39;23.88;;;12.40;;
54430;SDS011;40342;52.998;5.862;2022-10-30T07:39:04;21.50;;;12.57;;
54430;SDS011;40342;52.998;5.862;2022-10-30T07:41:30;20.98;;;13.30;;
54430;SDS011;40342;52.998;5.862;2022-10-30T07:43:56;20.00;;;12.98;;
54430;SDS011;40342;52.998;5.862;2022-10-30T07:46:21;19.92;;;13.13;;
54430;SDS011;40342;52.998;5.862;2022-10-30T07:48:47;22.05;;;12.85;;
54430;SDS011;40342;52.998;5.862;2022-10-30T07:51:12;19.58;;;13.23;;
54430;SDS011;40342;52.998;5.862;2022-10-30T07:53:39;21.85;;;13.48;;
54430;SDS011;40342;52.998;5.862;2022-10-30T07:56:05;21.67;;;12.75;;
54430;SDS011;40342;52.998;5.862;2022-10-30T07:58:30;25.98;;;13.38;;
54430;SDS011;40342;52.998;5.862;2022-10-30T08:00:56;21.73;;;13.25;;
54430;SDS011;40342;52.998;5.862;2022-10-30T08:03:22;24.58;;;14.05;;
54430;SDS011;40342;52.998;5.862;2022-10-30T08:05:47;22.05;;;14.07;;
54430;SDS011;40342;52.998;5.862;2022-10-30T08:08:13;20.70;;;12.63;;
54430;SDS011;40342;52.998;5.862;2022-10-30T08:10:39;21.63;;;13.35;;
54430;SDS011;40342;52.998;5.862;2022-10-30T08:13:04;22.90;;;12.77;;
54430;SDS011;40342;52.998;5.862;2022-10-30T08:15:30;25.75;;;13.70;;
54430;SDS011;40342;52.998;5.862;2022-10-30T08:17:56;22.35;;;13.75;;
54430;SDS011;40342;52.998;5.862;2022-10-30T08:20:23;19.80;;;12.98;;
54430;SDS011;40342;52.998;5.862;2022-10-30T08:22:49;18.73;;;12.57;;
54430;SDS011;40342;52.998;5.862;2022-10-30T08:25:17;22.67;;;13.60;;
54430;SDS011;40342;52.998;5.862;2022-10-30T08:27:49;24.95;;;13.02;;
54430;SDS011;40342;52.998;5.862;2022-10-30T08:30:22;26.48;;;13.80;;
54430;SDS011;40342;52.998;5.862;2022-10-30T08:32:49;24.65;;;14.25;;
54430;SDS011;40342;52.998;5.862;2022-10-30T08:35:15;21.60;;;13.63;;
54430;SDS011;40342;52.998;5.862;2022-10-30T08:37:41;24.95;;;14.88;;
54430;SDS011;40342;52.998;5.862;2022-10-30T08:40:07;20.50;;;13.98;;
54430;SDS011;40342;52.998;5.862;2022-10-30T08:42:34;23.85;;;14.63;;
54430;SDS011;40342;52.998;5.862;2022-10-30T08:44:59;28.35;;;13.98;;
54430;SDS011;40342;52.998;5.862;2022-10-30T08:47:25;22.08;;;13.52;;
54430;SDS011;40342;52.998;5.862;2022-10-30T08:49:51;25.25;;;14.35;;
54430;SDS011;40342;52.998;5.862;2022-10-30T08:52:16;22.27;;;13.85;;
54430;SDS011;40342;52.998;5.862;2022-10-30T08:54:42;23.75;;;14.05;;
54430;SDS011;40342;52.998;5.862;2022-10-30T08:57:07;24.60;;;14.02;;
54430;SDS011;40342;52.998;5.862;2022-10-30T08:59:33;23.75;;;13.75;;
54430;SDS011;40342;52.998;5.862;2022-10-30T09:01:58;21.40;;;15.10;;
54430;SDS011;40342;52.998;5.862;2022-10-30T09:04:24;22.40;;;15.52;;
54430;SDS011;40342;52.998;5.862;2022-10-30T09:06:49;26.15;;;15.88;;
54430;SDS011;40342;52.998;5.862;2022-10-30T09:09:15;24.42;;;14.43;;
54430;SDS011;40342;52.998;5.862;2022-10-30T09:11:40;25.75;;;14.77;;
54430;SDS011;40342;52.998;5.862;2022-10-30T09:14:06;21.20;;;13.80;;
54430;SDS011;40342;52.998;5.862;2022-10-30T09:16:31;29.05;;;14.40;;
54430;SDS011;40342;52.998;5.862;2022-10-30T09:18:57;23.02;;;14.30;;
54430;SDS011;40342;52.998;5.862;2022-10-30T09:21:22;23.02;;;14.82;;
54430;SDS011;40342;52.998;5.862;2022-10-30T09:23:48;25.65;;;15.23;;
54430;SDS011;40342;52.998;5.862;2022-10-30T09:26:14;22.75;;;14.90;;
54430;SDS011;40342;52.998;5.862;2022-10-30T09:28:39;23.48;;;15.05;;
54430;SDS011;40342;52.998;5.862;2022-10-30T09:31:05;22.67;;;14.15;;
54430;SDS011;40342;52.998;5.862;2022-10-30T09:33:30;27.63;;;13.75;;
54430;SDS011;40342;52.998;5.862;2022-10-30T09:35:56;25.42;;;14.35;;
54430;SDS011;40342;52.998;5.862;2022-10-30T09:38:21;21.05;;;13.40;;
54430;SDS011;40342;52.998;5.862;2022-10-30T09:43:54;25.33;;;13.15;;
54430;SDS011;40342;52.998;5.862;2022-10-30T09:49:18;19.85;;;12.10;;
54430;SDS011;40342;52.998;5.862;2022-10-30T09:51:56;21.52;;;12.35;;
54430;SDS011;40342;52.998;5.862;2022-10-30T10:00:07;25.13;;;12.32;;
54430;SDS011;40342;52.998;5.862;2022-10-30T10:02:36;16.15;;;10.75;;
54430;SDS011;40342;52.998;5.862;2022-10-30T10:05:21;18.88;;;10.65;;
54430;SDS011;40342;52.998;5.862;2022-10-30T10:08:03;23.92;;;10.52;;
54430;SDS011;40342;52.998;5.862;2022-10-30T10:10:41;17.83;;;10.98;;
54430;SDS011;40342;52.998;5.862;2022-10-30T10:13:13;18.80;;;10.73;;
54430;SDS011;40342;52.998;5.862;2022-10-30T10:15:44;17.33;;;10.40;;
54430;SDS011;40342;52.998;5.862;2022-10-30T10:18:16;20.60;;;10.20;;
54430;SDS011;40342;52.998;5.862;2022-10-30T10:21:00;17.10;;;9.90;;
54430;SDS011;40342;52.998;5.862;2022-10-30T10:23:47;18.10;;;10.80;;
54430;SDS011;40342;52.998;5.862;2022-10-30T10:37:30;20.02;;;10.32;;
54430;SDS011;40342;52.998;5.862;2022-10-30T10:40:32;19.73;;;10.60;;
54430;SDS011;40342;52.998;5.862;2022-10-30T10:51:10;17.70;;;10.63;;
54430;SDS011;40342;52.998;5.862;2022-10-30T10:53:39;20.30;;;10.40;;
54430;SDS011;40342;52.998;5.862;2022-10-30T10:56:06;16.65;;;10.80;;
54430;SDS011;40342;52.998;5.862;2022-10-30T10:58:43;21.80;;;10.50;;
54430;SDS011;40342;52.998;5.862;2022-10-30T11:01:14;18.55;;;10.75;;
54430;SDS011;40342;52.998;5.862;2022-10-30T11:03:49;18.48;;;9.95;;
54430;SDS011;40342;52.998;5.862;2022-10-30T11:06:26;18.10;;;10.65;;
54430;SDS011;40342;52.998;5.862;2022-10-30T11:09:10;20.23;;;10.02;;
54430;SDS011;40342;52.998;5.862;2022-10-30T11:11:44;21.83;;;11.07;;
54430;SDS011;40342;52.998;5.862;2022-10-30T11:14:13;20.63;;;10.40;;
54430;SDS011;40342;52.998;5.862;2022-10-30T11:19:13;16.50;;;11.13;;
54430;SDS011;40342;52.998;5.862;2022-10-30T11:21:41;20.05;;;11.18;;
54430;SDS011;40342;52.998;5.862;2022-10-30T11:24:29;17.50;;;10.23;;
54430;SDS011;40342;52.998;5.862;2022-10-30T11:26:57;22.83;;;10.63;;
54430;SDS011;40342;52.998;5.862;2022-10-30T11:29:53;18.58;;;10.23;;
54430;SDS011;40342;52.998;5.862;2022-10-30T11:32:28;22.10;;;11.00;;
54430;SDS011;40342;52.998;5.862;2022-10-30T11:35:02;21.13;;;10.55;;
54430;SDS011;40342;52.998;5.862;2022-10-30T11:37:38;20.63;;;9.88;;
54430;SDS011;40342;52.998;5.862;2022-10-30T11:40:13;16.77;;;10.20;;
54430;SDS011;40342;52.998;5.862;2022-10-30T11:42:57;18.88;;;9.80;;
54430;SDS011;40342;52.998;5.862;2022-10-30T11:45:27;16.60;;;9.75;;
54430;SDS011;40342;52.998;5.862;2022-10-30T11:48:01;19.50;;;10.18;;
54430;SDS011;40342;52.998;5.862;2022-10-30T11:50:35;23.35;;;10.65;;
54430;SDS011;40342;52.998;5.862;2022-10-30T11:53:15;23.30;;;10.82;;
54430;SDS011;40342;52.998;5.862;2022-10-30T11:55:46;17.00;;;10.70;;
54430;SDS011;40342;52.998;5.862;2022-10-30T11:58:23;21.67;;;9.48;;
54430;SDS011;40342;52.998;5.862;2022-10-30T12:01:02;16.25;;;9.57;;
54430;SDS011;40342;52.998;5.862;2022-10-30T12:03:41;16.50;;;8.45;;
54430;SDS011;40342;52.998;5.862;2022-10-30T12:06:14;21.52;;;9.32;;
54430;SDS011;40342;52.998;5.862;2022-10-30T12:08:59;20.77;;;9.20;;
54430;SDS011;40342;52.998;5.862;2022-10-30T12:11:27;17.80;;;9.27;;
54430;SDS011;40342;52.998;5.862;2022-10-30T12:13:59;20.33;;;9.27;;
54430;SDS011;40342;52.998;5.862;2022-10-30T12:16:25;19.25;;;9.73;;
54430;SDS011;40342;52.998;5.862;2022-10-30T12:18:59;19.95;;;9.23;;
54430;SDS011;40342;52.998;5.862;2022-10-30T12:21:28;16.80;;;9.35;;
54430;SDS011;40342;52.998;5.862;2022-10-30T12:24:00;23.45;;;9.80;;
54430;SDS011;40342;52.998;5.862;2022-10-30T12:26:31;15.82;;;9.52;;
54430;SDS011;40342;52.998;5.862;2022-10-30T12:28:59;22.55;;;9.15;;
54430;SDS011;40342;52.998;5.862;2022-10-30T12:31:42;18.17;;;9.35;;
54430;SDS011;40342;52.998;5.862;2022-10-30T12:37:23;20.23;;;9.23;;
54430;SDS011;40342;52.998;5.862;2022-10-30T12:40:01;20.00;;;9.18;;
54430;SDS011;40342;52.998;5.862;2022-10-30T12:42:33;16.15;;;9.93;;
54430;SDS011;40342;52.998;5.862;2022-10-30T12:45:11;22.08;;;10.35;;
54430;SDS011;40342;52.998;5.862;2022-10-30T12:50:12;22.25;;;9.90;;
54430;SDS011;40342;52.998;5.862;2022-10-30T12:55:59;19.92;;;8.95;;
54430;SDS011;40342;52.998;5.862;2022-10-30T12:58:39;20.17;;;9.82;;
54430;SDS011;40342;52.998;5.862;2022-10-30T13:01:22;16.60;;;8.88;;
54430;SDS011;40342;52.998;5.862;2022-10-30T13:03:54;15.95;;;9.10;;
54430;SDS011;40342;52.998;5.862;2022-10-30T13:06:28;16.95;;;9.18;;
54430;SDS011;40342;52.998;5.862;2022-10-30T13:11:40;18.70;;;8.82;;
54430;SDS011;40342;52.998;5.862;2022-10-30T13:14:37;17.42;;;9.65;;
54430;SDS011;40342;52.998;5.862;2022-10-30T13:17:10;16.77;;;9.40;;
54430;SDS011;40342;52.998;5.862;2022-10-30T13:19:38;19.13;;;9.48;;
54430;SDS011;40342;52.998;5.862;2022-10-30T13:25:16;18.42;;;9.50;;
54430;SDS011;40342;52.998;5.862;2022-10-30T13:27:53;19.85;;;9.40;;
54430;SDS011;40342;52.998;5.862;2022-10-30T13:30:26;19.08;;;10.20;;
54430;SDS011;40342;52.998;5.862;2022-10-30T13:35:47;21.75;;;9.95;;
54430;SDS011;40342;52.998;5.862;2022-10-30T13:38:52;27.80;;;9.48;;
54430;SDS011;40342;52.998;5.862;2022-10-30T13:45:00;17.35;;;9.48;;
54430;SDS011;40342;52.998;5.862;2022-10-30T13:47:54;18.00;;;10.27;;
54430;SDS011;40342;52.998;5.862;2022-10-30T13:50:49;17.63;;;9.93;;
54430;SDS011;40342;52.998;5.862;2022-10-30T13:53:38;19.23;;;10.13;;
54430;SDS011;40342;52.998;5.862;2022-10-30T13:56:10;21.13;;;10.68;;
54430;SDS011;40342;52.998;5.862;2022-10-30T13:58:42;18.92;;;10.20;;
54430;SDS011;40342;52.998;5.862;2022-10-30T14:01:32;20.63;;;10.77;;
54430;SDS011;40342;52.998;5.862;2022-10-30T14:04:05;16.48;;;10.60;;
54430;SDS011;40342;52.998;5.862;2022-10-30T14:06:41;19.30;;;10.65;;
54430;SDS011;40342;52.998;5.862;2022-10-30T14:09:38;22.73;;;9.88;;
54430;SDS011;40342;52.998;5.862;2022-10-30T14:20:39;19.67;;;10.52;;
54430;SDS011;40342;52.998;5.862;2022-10-30T14:26:10;20.90;;;10.55;;
54430;SDS011;40342;52.998;5.862;2022-10-30T14:28:30;17.45;;;11.27;;
54430;SDS011;40342;52.998;5.862;2022-10-30T14:31:01;16.50;;;10.63;;
54430;SDS011;40342;52.998;5.862;2022-10-30T14:33:32;24.58;;;14.15;;
54430;SDS011;40342;52.998;5.862;2022-10-30T14:41:58;17.67;;;10.63;;
54430;SDS011;40342;52.998;5.862;2022-10-30T14:44:51;19.58;;;11.02;;
54430;SDS011;40342;52.998;5.862;2022-10-30T14:53:15;18.35;;;12.45;;
54430;SDS011;40342;52.998;5.862;2022-10-30T14:58:39;25.42;;;11.90;;
54430;SDS011;40342;52.998;5.862;2022-10-30T15:06:22;24.45;;;13.57;;
54430;SDS011;40342;52.998;5.862;2022-10-30T15:11:50;22.95;;;11.55;;
54430;SDS011;40342;52.998;5.862;2022-10-30T15:14:22;18.80;;;10.18;;
54430;SDS011;40342;52.998;5.862;2022-10-30T15:16:56;20.58;;;10.93;;
54430;SDS011;40342;52.998;5.862;2022-10-30T15:19:25;22.45;;;10.85;;
54430;SDS011;40342;52.998;5.862;2022-10-30T15:21:53;20.90;;;9.98;;
54430;SDS011;40342;52.998;5.862;2022-10-30T15:24:21;15.82;;;11.20;;
54430;SDS011;40342;52.998;5.862;2022-10-30T15:26:49;26.30;;;11.57;;
54430;SDS011;40342;52.998;5.862;2022-10-30T15:29:21;16.23;;;11.10;;
54430;SDS011;40342;52.998;5.862;2022-10-30T15:34:22;18.30;;;11.80;;
54430;SDS011;40342;52.998;5.862;2022-10-30T15:36:48;21.92;;;11.50;;
54430;SDS011;40342;52.998;5.862;2022-10-30T15:39:14;20.83;;;10.90;;
54430;SDS011;40342;52.998;5.862;2022-10-30T15:41:43;16.15;;;10.23;;
54430;SDS011;40342;52.998;5.862;2022-10-30T15:44:17;17.80;;;10.05;;
54430;SDS011;40342;52.998;5.862;2022-10-30T15:46:49;16.23;;;8.50;;
54430;SDS011;40342;52.998;5.862;2022-10-30T15:49:39;15.43;;;9.10;;
54430;SDS011;40342;52.998;5.862;2022-10-30T15:52:26;12.82;;;8.80;;
54430;SDS011;40342;52.998;5.862;2022-10-30T15:54:58;16.88;;;10.45;;
54430;SDS011;40342;52.998;5.862;2022-10-30T15:57:32;14.05;;;10.02;;
54430;SDS011;40342;52.998;5.862;2022-10-30T16:00:02;16.55;;;9.73;;
54430;SDS011;40342;52.998;5.862;2022-10-30T16:02:32;15.48;;;9.45;;
54430;SDS011;40342;52.998;5.862;2022-10-30T16:04:58;15.43;;;9.55;;
54430;SDS011;40342;52.998;5.862;2022-10-30T16:07:24;15.80;;;9.88;;
54430;SDS011;40342;52.998;5.862;2022-10-30T16:12:30;12.40;;;8.80;;
54430;SDS011;40342;52.998;5.862;2022-10-30T16:14:57;16.10;;;9.82;;
54430;SDS011;40342;52.998;5.862;2022-10-30T16:17:27;14.82;;;9.65;;
54430;SDS011;40342;52.998;5.862;2022-10-30T16:19:54;17.10;;;9.70;;
54430;SDS011;40342;52.998;5.862;2022-10-30T16:22:28;16.95;;;9.98;;
54430;SDS011;40342;52.998;5.862;2022-10-30T16:24:58;13.00;;;9.30;;
54430;SDS011;40342;52.998;5.862;2022-10-30T16:27:24;14.40;;;8.98;;
54430;SDS011;40342;52.998;5.862;2022-10-30T16:29:55;12.18;;;8.38;;